sensor_id;sensor_type;location;lat;lon;timestamp;P1;durP1;ratioP1;P2;durP2;ratioP2
55035;SDS011;40936;53.008;6.556;2022-09-21T00:00:35;1999.90;;;999.90;;
55035;SDS011;40936;53.008;6.556;2022-09-21T00:03:03;1999.90;;;999.90;;
55035;SDS011;40936;53.008;6.556;2022-09-21T00:05:29;1999.90;;;999.90;;
55035;SDS011;40936;53.008;6.556;2022-09-21T00:07:58;1999.90;;;999.90;;
55035;SDS011;40936;53.008;6.556;2022-09-21T00:10:25;1999.90;;;999.90;;
55035;SDS011;40936;53.008;6.556;2022-09-21T00:12:51;1999.90;;;999.90;;
55035;SDS011;40936;53.008;6.556;2022-09-21T00:15:17;1999.90;;;999.90;;
55035;SDS011;40936;53.008;6.556;2022-09-21T00:17:43;1999.90;;;999.90;;
55035;SDS011;40936;53.008;6.556;2022-09-21T00:20:11;1999.90;;;999.90;;
55035;SDS011;40936;53.008;6.556;2022-09-21T00:22:39;1999.90;;;999.90;;
55035;SDS011;40936;53.008;6.556;2022-09-21T00:25:06;1999.90;;;999.90;;
55035;SDS011;40936;53.008;6.556;2022-09-21T00:27:32;1999.90;;;999.90;;
55035;SDS011;40936;53.008;6.556;2022-09-21T00:29:59;1999.90;;;999.90;;
55035;SDS011;40936;53.008;6.556;2022-09-21T00:32:27;1999.90;;;999.90;;
55035;SDS011;40936;53.008;6.556;2022-09-21T00:34:55;1999.90;;;999.90;;
55035;SDS011;40936;53.008;6.556;2022-09-21T00:37:22;1999.90;;;999.90;;
55035;SDS011;40936;53.008;6.556;2022-09-21T00:39:49;1999.90;;;999.90;;
55035;SDS011;40936;53.008;6.556;2022-09-21T00:42:17;1999.90;;;999.90;;
55035;SDS011;40936;53.008;6.556;2022-09-21T00:44:48;1999.90;;;999.90;;
55035;SDS011;40936;53.008;6.556;2022-09-21T00:47:15;1999.90;;;999.90;;
55035;SDS011;40936;53.008;6.556;2022-09-21T00:49:46;1999.90;;;999.90;;
55035;SDS011;40936;53.008;6.556;2022-09-21T00:52:16;1999.90;;;999.90;;
55035;SDS011;40936;53.008;6.556;2022-09-21T00:54:45;1999.90;;;999.90;;
55035;SDS011;40936;53.008;6.556;2022-09-21T00:57:18;1999.90;;;999.90;;
55035;SDS011;40936;53.008;6.556;2022-09-21T00:59:46;1999.90;;;999.90;;
55035;SDS011;40936;53.008;6.556;2022-09-21T01:02:15;1999.90;;;999.90;;
55035;SDS011;40936;53.008;6.556;2022-09-21T01:04:42;1999.90;;;999.90;;
55035;SDS011;40936;53.008;6.556;2022-09-21T01:07:10;1999.90;;;999.90;;
55035;SDS011;40936;53.008;6.556;2022-09-21T01:09:40;1999.90;;;999.90;;
55035;SDS011;40936;53.008;6.556;2022-09-21T01:26:27;1999.90;;;999.90;;
55035;SDS011;40936;53.008;6.556;2022-09-21T01:29:52;1999.90;;;999.90;;
55035;SDS011;40936;53.008;6.556;2022-09-21T01:34:52;1999.90;;;999.90;;
55035;SDS011;40936;53.008;6.556;2022-09-21T01:37:43;1999.90;;;999.90;;
55035;SDS011;40936;53.008;6.556;2022-09-21T01:40:18;1999.90;;;999.90;;
55035;SDS011;40936;53.008;6.556;2022-09-21T01:42:55;1999.90;;;999.90;;
55035;SDS011;40936;53.008;6.556;2022-09-21T01:45:24;1999.90;;;999.90;;
55035;SDS011;40936;53.008;6.556;2022-09-21T01:47:55;1999.90;;;999.90;;
55035;SDS011;40936;53.008;6.556;2022-09-21T01:50:24;1999.90;;;999.90;;
55035;SDS011;40936;53.008;6.556;2022-09-21T01:53:01;1999.90;;;999.90;;
55035;SDS011;40936;53.008;6.556;2022-09-21T01:55:41;1999.90;;;999.90;;
55035;SDS011;40936;53.008;6.556;2022-09-21T01:58:13;1999.90;;;999.90;;
55035;SDS011;40936;53.008;6.556;2022-09-21T02:00:47;1999.90;;;999.90;;
55035;SDS011;40936;53.008;6.556;2022-09-21T02:03:20;1999.90;;;999.90;;
55035;SDS011;40936;53.008;6.556;2022-09-21T02:05:59;1999.90;;;999.90;;
55035;SDS011;40936;53.008;6.556;2022-09-21T02:08:28;1999.90;;;999.90;;
55035;SDS011;40936;53.008;6.556;2022-09-21T02:10:56;1999.90;;;999.90;;
55035;SDS011;40936;53.008;6.556;2022-09-21T02:13:25;1999.90;;;999.90;;
55035;SDS011;40936;53.008;6.556;2022-09-21T02:24:07;1999.90;;;999.90;;
55035;SDS011;40936;53.008;6.556;2022-09-21T02:26:42;1999.90;;;999.90;;
55035;SDS011;40936;53.008;6.556;2022-09-21T02:29:19;1999.90;;;999.90;;
55035;SDS011;40936;53.008;6.556;2022-09-21T02:32:02;1999.90;;;999.90;;
55035;SDS011;40936;53.008;6.556;2022-09-21T02:37:40;1999.90;;;999.90;;
55035;SDS011;40936;53.008;6.556;2022-09-21T02:45:58;1999.90;;;999.90;;
55035;SDS011;40936;53.008;6.556;2022-09-21T02:48:49;1999.90;;;999.90;;
55035;SDS011;40936;53.008;6.556;2022-09-21T02:51:20;1999.90;;;999.90;;
55035;SDS011;40936;53.008;6.556;2022-09-21T02:53:55;1999.90;;;999.90;;
55035;SDS011;40936;53.008;6.556;2022-09-21T02:56:24;1999.90;;;999.90;;
55035;SDS011;40936;53.008;6.556;2022-09-21T02:58:52;1999.90;;;999.90;;
55035;SDS011;40936;53.008;6.556;2022-09-21T03:01:21;1999.90;;;999.90;;
55035;SDS011;40936;53.008;6.556;2022-09-21T03:03:49;1999.90;;;999.90;;
55035;SDS011;40936;53.008;6.556;2022-09-21T03:06:14;1999.90;;;999.90;;
55035;SDS011;40936;53.008;6.556;2022-09-21T03:08:40;1999.90;;;999.90;;
55035;SDS011;40936;53.008;6.556;2022-09-21T03:11:06;1999.90;;;999.90;;
55035;SDS011;40936;53.008;6.556;2022-09-21T03:13:32;1999.90;;;999.90;;
55035;SDS011;40936;53.008;6.556;2022-09-21T03:16:02;1999.90;;;999.90;;
55035;SDS011;40936;53.008;6.556;2022-09-21T03:18:30;1999.90;;;999.90;;
55035;SDS011;40936;53.008;6.556;2022-09-21T03:20:56;1999.90;;;999.90;;
55035;SDS011;40936;53.008;6.556;2022-09-21T03:23:22;1999.90;;;999.90;;
55035;SDS011;40936;53.008;6.556;2022-09-21T03:25:48;1999.90;;;999.90;;
55035;SDS011;40936;53.008;6.556;2022-09-21T03:28:14;1999.90;;;999.90;;
55035;SDS011;40936;53.008;6.556;2022-09-21T03:30:40;1999.90;;;999.90;;
55035;SDS011;40936;53.008;6.556;2022-09-21T03:33:07;1999.90;;;999.90;;
55035;SDS011;40936;53.008;6.556;2022-09-21T03:35:32;1999.90;;;999.90;;
55035;SDS011;40936;53.008;6.556;2022-09-21T03:37:58;1999.90;;;999.90;;
55035;SDS011;40936;53.008;6.556;2022-09-21T03:40:25;1999.90;;;999.90;;
55035;SDS011;40936;53.008;6.556;2022-09-21T03:42:51;1999.90;;;999.90;;
55035;SDS011;40936;53.008;6.556;2022-09-21T03:45:18;1999.90;;;999.90;;
55035;SDS011;40936;53.008;6.556;2022-09-21T03:47:46;1999.90;;;999.90;;
55035;SDS011;40936;53.008;6.556;2022-09-21T03:50:12;1999.90;;;999.90;;
55035;SDS011;40936;53.008;6.556;2022-09-21T03:52:38;1999.90;;;999.90;;
55035;SDS011;40936;53.008;6.556;2022-09-21T03:55:05;1999.90;;;999.90;;
55035;SDS011;40936;53.008;6.556;2022-09-21T03:57:33;1999.90;;;999.90;;
55035;SDS011;40936;53.008;6.556;2022-09-21T04:00:00;1999.90;;;999.90;;
55035;SDS011;40936;53.008;6.556;2022-09-21T04:02:28;1999.90;;;999.90;;
55035;SDS011;40936;53.008;6.556;2022-09-21T04:04:54;1999.90;;;999.90;;
55035;SDS011;40936;53.008;6.556;2022-09-21T04:07:20;1999.90;;;999.90;;
55035;SDS011;40936;53.008;6.556;2022-09-21T04:09:45;1999.90;;;999.90;;
55035;SDS011;40936;53.008;6.556;2022-09-21T04:12:11;1999.90;;;999.90;;
55035;SDS011;40936;53.008;6.556;2022-09-21T04:14:37;1999.90;;;999.90;;
55035;SDS011;40936;53.008;6.556;2022-09-21T04:17:03;1999.90;;;999.90;;
55035;SDS011;40936;53.008;6.556;2022-09-21T04:19:29;1999.90;;;999.90;;
55035;SDS011;40936;53.008;6.556;2022-09-21T04:21:54;1999.90;;;999.90;;
55035;SDS011;40936;53.008;6.556;2022-09-21T04:24:20;1999.90;;;999.90;;
55035;SDS011;40936;53.008;6.556;2022-09-21T04:26:47;1999.90;;;999.90;;
55035;SDS011;40936;53.008;6.556;2022-09-21T04:29:13;1999.90;;;999.90;;
55035;SDS011;40936;53.008;6.556;2022-09-21T04:31:39;1999.90;;;999.90;;
55035;SDS011;40936;53.008;6.556;2022-09-21T04:34:05;1999.90;;;999.90;;
55035;SDS011;40936;53.008;6.556;2022-09-21T04:36:31;1999.90;;;999.90;;
55035;SDS011;40936;53.008;6.556;2022-09-21T04:38:59;1999.90;;;999.90;;
55035;SDS011;40936;53.008;6.556;2022-09-21T04:41:25;1999.90;;;999.90;;
55035;SDS011;40936;53.008;6.556;2022-09-21T04:43:51;1999.90;;;999.90;;
55035;SDS011;40936;53.008;6.556;2022-09-21T04:46:17;1999.90;;;999.90;;
55035;SDS011;40936;53.008;6.556;2022-09-21T04:48:44;1999.90;;;999.90;;
55035;SDS011;40936;53.008;6.556;2022-09-21T04:51:11;1999.90;;;999.90;;
55035;SDS011;40936;53.008;6.556;2022-09-21T04:53:38;1999.90;;;999.90;;
55035;SDS011;40936;53.008;6.556;2022-09-21T04:56:06;1999.90;;;999.90;;
55035;SDS011;40936;53.008;6.556;2022-09-21T04:58:33;1999.90;;;999.90;;
55035;SDS011;40936;53.008;6.556;2022-09-21T05:00:59;1999.90;;;999.90;;
55035;SDS011;40936;53.008;6.556;2022-09-21T05:03:25;1999.90;;;999.90;;
55035;SDS011;40936;53.008;6.556;2022-09-21T05:05:52;1999.90;;;999.90;;
55035;SDS011;40936;53.008;6.556;2022-09-21T05:11:06;1999.90;;;999.90;;
55035;SDS011;40936;53.008;6.556;2022-09-21T05:13:33;1999.90;;;999.90;;
55035;SDS011;40936;53.008;6.556;2022-09-21T05:16:00;1999.90;;;999.90;;
55035;SDS011;40936;53.008;6.556;2022-09-21T05:18:25;1999.90;;;999.90;;
55035;SDS011;40936;53.008;6.556;2022-09-21T05:20:58;1999.90;;;999.90;;
55035;SDS011;40936;53.008;6.556;2022-09-21T05:23:26;1999.90;;;999.90;;
55035;SDS011;40936;53.008;6.556;2022-09-21T05:25:55;1999.90;;;999.90;;
55035;SDS011;40936;53.008;6.556;2022-09-21T05:28:22;1999.90;;;999.90;;
55035;SDS011;40936;53.008;6.556;2022-09-21T05:33:57;1999.90;;;999.90;;
55035;SDS011;40936;53.008;6.556;2022-09-21T05:36:40;1999.90;;;999.90;;
55035;SDS011;40936;53.008;6.556;2022-09-21T05:39:14;1999.90;;;999.90;;
55035;SDS011;40936;53.008;6.556;2022-09-21T05:41:40;1999.90;;;999.90;;
55035;SDS011;40936;53.008;6.556;2022-09-21T05:44:06;1999.90;;;999.90;;
55035;SDS011;40936;53.008;6.556;2022-09-21T05:46:36;1999.90;;;999.90;;
55035;SDS011;40936;53.008;6.556;2022-09-21T06:00:12;1999.90;;;999.90;;
55035;SDS011;40936;53.008;6.556;2022-09-21T06:05:14;1999.90;;;999.90;;
55035;SDS011;40936;53.008;6.556;2022-09-21T06:07:40;1999.90;;;999.90;;
55035;SDS011;40936;53.008;6.556;2022-09-21T06:10:06;1999.90;;;999.90;;
55035;SDS011;40936;53.008;6.556;2022-09-21T06:12:36;1999.90;;;999.90;;
55035;SDS011;40936;53.008;6.556;2022-09-21T06:15:04;1999.90;;;999.90;;
55035;SDS011;40936;53.008;6.556;2022-09-21T06:17:32;1999.90;;;999.90;;
55035;SDS011;40936;53.008;6.556;2022-09-21T06:19:58;1999.90;;;999.90;;
55035;SDS011;40936;53.008;6.556;2022-09-21T06:22:23;1999.90;;;999.90;;
55035;SDS011;40936;53.008;6.556;2022-09-21T06:24:49;1999.90;;;999.90;;
55035;SDS011;40936;53.008;6.556;2022-09-21T06:27:15;1999.90;;;999.90;;
55035;SDS011;40936;53.008;6.556;2022-09-21T06:29:40;1999.90;;;999.90;;
55035;SDS011;40936;53.008;6.556;2022-09-21T06:32:06;1999.90;;;999.90;;
55035;SDS011;40936;53.008;6.556;2022-09-21T06:34:32;1999.90;;;999.90;;
55035;SDS011;40936;53.008;6.556;2022-09-21T06:36:57;1999.90;;;999.90;;
55035;SDS011;40936;53.008;6.556;2022-09-21T06:39:27;1999.90;;;999.90;;
55035;SDS011;40936;53.008;6.556;2022-09-21T06:41:52;1999.90;;;999.90;;
55035;SDS011;40936;53.008;6.556;2022-09-21T06:44:19;1999.90;;;999.90;;
55035;SDS011;40936;53.008;6.556;2022-09-21T06:46:44;1999.90;;;999.90;;
55035;SDS011;40936;53.008;6.556;2022-09-21T06:49:10;1999.90;;;999.90;;
55035;SDS011;40936;53.008;6.556;2022-09-21T06:51:36;1999.90;;;999.90;;
55035;SDS011;40936;53.008;6.556;2022-09-21T06:54:01;1999.90;;;999.90;;
55035;SDS011;40936;53.008;6.556;2022-09-21T06:56:28;1999.90;;;999.90;;
55035;SDS011;40936;53.008;6.556;2022-09-21T06:58:54;1999.90;;;999.90;;
55035;SDS011;40936;53.008;6.556;2022-09-21T07:01:19;1999.90;;;999.90;;
55035;SDS011;40936;53.008;6.556;2022-09-21T07:03:47;1999.90;;;999.90;;
55035;SDS011;40936;53.008;6.556;2022-09-21T07:06:15;1999.90;;;999.90;;
55035;SDS011;40936;53.008;6.556;2022-09-21T07:08:41;1999.90;;;999.90;;
55035;SDS011;40936;53.008;6.556;2022-09-21T07:11:11;1999.90;;;999.90;;
55035;SDS011;40936;53.008;6.556;2022-09-21T07:13:37;1999.90;;;999.90;;
55035;SDS011;40936;53.008;6.556;2022-09-21T07:16:05;1999.90;;;999.90;;
55035;SDS011;40936;53.008;6.556;2022-09-21T07:18:32;1999.90;;;999.90;;
55035;SDS011;40936;53.008;6.556;2022-09-21T07:21:02;1999.90;;;999.90;;
55035;SDS011;40936;53.008;6.556;2022-09-21T07:23:32;1999.90;;;999.90;;
55035;SDS011;40936;53.008;6.556;2022-09-21T07:26:02;1999.90;;;999.90;;
55035;SDS011;40936;53.008;6.556;2022-09-21T07:28:30;1999.90;;;999.90;;
55035;SDS011;40936;53.008;6.556;2022-09-21T07:30:57;1999.90;;;999.90;;
55035;SDS011;40936;53.008;6.556;2022-09-21T07:33:23;1999.90;;;999.90;;
55035;SDS011;40936;53.008;6.556;2022-09-21T07:35:50;1999.90;;;999.90;;
55035;SDS011;40936;53.008;6.556;2022-09-21T07:38:17;1999.90;;;999.90;;
55035;SDS011;40936;53.008;6.556;2022-09-21T07:40:43;1999.90;;;999.90;;
55035;SDS011;40936;53.008;6.556;2022-09-21T07:43:09;1999.90;;;999.90;;
55035;SDS011;40936;53.008;6.556;2022-09-21T07:45:35;1999.90;;;999.90;;
55035;SDS011;40936;53.008;6.556;2022-09-21T07:48:04;1999.90;;;999.90;;
55035;SDS011;40936;53.008;6.556;2022-09-21T07:50:30;1999.90;;;999.90;;
55035;SDS011;40936;53.008;6.556;2022-09-21T07:52:58;1999.90;;;999.90;;
55035;SDS011;40936;53.008;6.556;2022-09-21T07:55:25;1999.90;;;999.90;;
55035;SDS011;40936;53.008;6.556;2022-09-21T07:57:51;1999.90;;;999.90;;
55035;SDS011;40936;53.008;6.556;2022-09-21T08:00:35;1999.90;;;999.90;;
55035;SDS011;40936;53.008;6.556;2022-09-21T08:03:02;1999.90;;;999.90;;
55035;SDS011;40936;53.008;6.556;2022-09-21T08:05:29;1999.90;;;999.90;;
55035;SDS011;40936;53.008;6.556;2022-09-21T08:07:55;1999.90;;;985.88;;
55035;SDS011;40936;53.008;6.556;2022-09-21T08:10:21;1999.90;;;999.90;;
55035;SDS011;40936;53.008;6.556;2022-09-21T08:12:48;1999.90;;;999.90;;
55035;SDS011;40936;53.008;6.556;2022-09-21T08:15:14;1999.90;;;999.90;;
55035;SDS011;40936;53.008;6.556;2022-09-21T08:17:42;1111.03;;;986.40;;
55035;SDS011;40936;53.008;6.556;2022-09-21T08:20:08;986.10;;;896.13;;
55035;SDS011;40936;53.008;6.556;2022-09-21T08:22:34;910.38;;;834.72;;
55035;SDS011;40936;53.008;6.556;2022-09-21T08:25:00;595.90;;;554.08;;
55035;SDS011;40936;53.008;6.556;2022-09-21T08:27:26;382.02;;;359.55;;
55035;SDS011;40936;53.008;6.556;2022-09-21T08:29:52;404.00;;;377.55;;
55035;SDS011;40936;53.008;6.556;2022-09-21T08:32:18;259.70;;;244.73;;
55035;SDS011;40936;53.008;6.556;2022-09-21T08:34:43;394.35;;;370.95;;
55035;SDS011;40936;53.008;6.556;2022-09-21T08:37:09;275.88;;;260.17;;
55035;SDS011;40936;53.008;6.556;2022-09-21T08:39:35;280.65;;;264.52;;
55035;SDS011;40936;53.008;6.556;2022-09-21T08:44:50;362.52;;;340.15;;
55035;SDS011;40936;53.008;6.556;2022-09-21T08:47:27;509.75;;;471.98;;
55035;SDS011;40936;53.008;6.556;2022-09-21T08:50:04;1107.72;;;975.67;;
55035;SDS011;40936;53.008;6.556;2022-09-21T08:53:10;1048.30;;;898.22;;
55035;SDS011;40936;53.008;6.556;2022-09-21T08:58:01;995.85;;;881.47;;
55035;SDS011;40936;53.008;6.556;2022-09-21T09:00:28;1720.70;;;999.90;;
55035;SDS011;40936;53.008;6.556;2022-09-21T09:03:35;1719.45;;;999.90;;
55035;SDS011;40936;53.008;6.556;2022-09-21T09:06:05;1772.60;;;999.90;;
55035;SDS011;40936;53.008;6.556;2022-09-21T09:08:43;1994.45;;;999.90;;
55035;SDS011;40936;53.008;6.556;2022-09-21T09:11:36;1999.90;;;992.30;;
55035;SDS011;40936;53.008;6.556;2022-09-21T09:14:47;1999.90;;;999.90;;
55035;SDS011;40936;53.008;6.556;2022-09-21T09:17:26;1999.90;;;999.90;;
55035;SDS011;40936;53.008;6.556;2022-09-21T09:20:12;1719.57;;;994.08;;
55035;SDS011;40936;53.008;6.556;2022-09-21T09:22:40;1999.90;;;999.90;;
55035;SDS011;40936;53.008;6.556;2022-09-21T09:25:22;1999.90;;;999.90;;
55035;SDS011;40936;53.008;6.556;2022-09-21T09:27:54;1999.90;;;811.72;;
55035;SDS011;40936;53.008;6.556;2022-09-21T09:30:24;1431.18;;;376.35;;
55035;SDS011;40936;53.008;6.556;2022-09-21T09:44:10;1999.90;;;933.75;;
55035;SDS011;40936;53.008;6.556;2022-09-21T09:49:19;1999.90;;;999.90;;
55035;SDS011;40936;53.008;6.556;2022-09-21T09:52:02;1999.90;;;696.63;;
55035;SDS011;40936;53.008;6.556;2022-09-21T09:54:29;1999.90;;;999.90;;
55035;SDS011;40936;53.008;6.556;2022-09-21T09:57:00;1999.90;;;999.90;;
55035;SDS011;40936;53.008;6.556;2022-09-21T09:59:40;1999.90;;;999.90;;
55035;SDS011;40936;53.008;6.556;2022-09-21T10:04:56;1986.60;;;903.63;;
55035;SDS011;40936;53.008;6.556;2022-09-21T10:10:48;1999.90;;;999.90;;
55035;SDS011;40936;53.008;6.556;2022-09-21T10:13:02;1895.35;;;760.03;;
55035;SDS011;40936;53.008;6.556;2022-09-21T10:16:00;1999.90;;;999.90;;
55035;SDS011;40936;53.008;6.556;2022-09-21T10:19:03;1999.90;;;999.90;;
55035;SDS011;40936;53.008;6.556;2022-09-21T10:21:35;1999.90;;;999.90;;
55035;SDS011;40936;53.008;6.556;2022-09-21T10:26:31;1999.90;;;877.08;;
55035;SDS011;40936;53.008;6.556;2022-09-21T10:29:01;699.88;;;229.20;;
55035;SDS011;40936;53.008;6.556;2022-09-21T10:31:52;1999.90;;;999.90;;
55035;SDS011;40936;53.008;6.556;2022-09-21T10:34:33;1983.07;;;557.90;;
55035;SDS011;40936;53.008;6.556;2022-09-21T10:37:00;1999.90;;;685.13;;
55035;SDS011;40936;53.008;6.556;2022-09-21T10:39:46;1999.90;;;999.90;;
55035;SDS011;40936;53.008;6.556;2022-09-21T10:42:13;1999.90;;;999.90;;
55035;SDS011;40936;53.008;6.556;2022-09-21T10:47:18;1001.17;;;908.67;;
55035;SDS011;40936;53.008;6.556;2022-09-21T10:50:01;1725.30;;;999.90;;
55035;SDS011;40936;53.008;6.556;2022-09-21T10:52:35;1999.90;;;999.90;;
55035;SDS011;40936;53.008;6.556;2022-09-21T10:55:06;1999.90;;;999.90;;
55035;SDS011;40936;53.008;6.556;2022-09-21T10:57:39;1691.15;;;800.03;;
55035;SDS011;40936;53.008;6.556;2022-09-21T11:02:56;1999.90;;;999.90;;
55035;SDS011;40936;53.008;6.556;2022-09-21T11:05:32;1999.90;;;999.90;;
55035;SDS011;40936;53.008;6.556;2022-09-21T11:08:17;1999.90;;;999.90;;
55035;SDS011;40936;53.008;6.556;2022-09-21T11:24:19;1999.90;;;999.90;;
55035;SDS011;40936;53.008;6.556;2022-09-21T11:26:51;1999.90;;;999.90;;
55035;SDS011;40936;53.008;6.556;2022-09-21T11:29:29;1505.40;;;620.08;;
55035;SDS011;40936;53.008;6.556;2022-09-21T11:38:17;1999.90;;;999.90;;
55035;SDS011;40936;53.008;6.556;2022-09-21T11:46:30;1999.90;;;999.90;;
55035;SDS011;40936;53.008;6.556;2022-09-21T12:00:32;1073.50;;;231.48;;
55035;SDS011;40936;53.008;6.556;2022-09-21T12:06:17;1999.90;;;922.80;;
55035;SDS011;40936;53.008;6.556;2022-09-21T12:11:51;1668.07;;;999.90;;
55035;SDS011;40936;53.008;6.556;2022-09-21T12:22:25;1290.43;;;893.92;;
55035;SDS011;40936;53.008;6.556;2022-09-21T12:24:59;379.58;;;351.38;;
55035;SDS011;40936;53.008;6.556;2022-09-21T12:27:47;284.20;;;265.65;;
55035;SDS011;40936;53.008;6.556;2022-09-21T12:30:20;148.30;;;139.50;;
55035;SDS011;40936;53.008;6.556;2022-09-21T12:40:46;253.63;;;238.63;;
55035;SDS011;40936;53.008;6.556;2022-09-21T12:43:21;1999.90;;;928.17;;
55035;SDS011;40936;53.008;6.556;2022-09-21T12:46:05;1999.90;;;999.90;;
55035;SDS011;40936;53.008;6.556;2022-09-21T12:48:38;1973.80;;;874.97;;
55035;SDS011;40936;53.008;6.556;2022-09-21T12:53:55;492.15;;;459.35;;
55035;SDS011;40936;53.008;6.556;2022-09-21T13:09:49;1999.90;;;999.90;;
55035;SDS011;40936;53.008;6.556;2022-09-21T13:14:48;1981.38;;;690.40;;
55035;SDS011;40936;53.008;6.556;2022-09-21T13:17:18;1612.05;;;771.42;;
55035;SDS011;40936;53.008;6.556;2022-09-21T13:19:54;644.97;;;568.13;;
55035;SDS011;40936;53.008;6.556;2022-09-21T13:22:29;545.97;;;505.23;;
55035;SDS011;40936;53.008;6.556;2022-09-21T13:25:04;1999.90;;;909.25;;
55035;SDS011;40936;53.008;6.556;2022-09-21T13:30:44;483.00;;;451.58;;
55035;SDS011;40936;53.008;6.556;2022-09-21T13:54:36;1999.90;;;999.90;;
55035;SDS011;40936;53.008;6.556;2022-09-21T13:57:16;640.03;;;595.13;;
55035;SDS011;40936;53.008;6.556;2022-09-21T14:00:04;565.17;;;526.85;;
55035;SDS011;40936;53.008;6.556;2022-09-21T14:02:35;1999.90;;;689.28;;
55035;SDS011;40936;53.008;6.556;2022-09-21T14:10:40;1999.90;;;999.90;;
55035;SDS011;40936;53.008;6.556;2022-09-21T14:15:51;1999.90;;;999.90;;
55035;SDS011;40936;53.008;6.556;2022-09-21T14:18:18;1999.90;;;999.90;;
55035;SDS011;40936;53.008;6.556;2022-09-21T14:21:09;1999.90;;;999.90;;
55035;SDS011;40936;53.008;6.556;2022-09-21T14:23:41;1999.90;;;999.90;;
55035;SDS011;40936;53.008;6.556;2022-09-21T14:31:58;1999.90;;;999.90;;
55035;SDS011;40936;53.008;6.556;2022-09-21T14:34:28;1999.90;;;755.10;;
55035;SDS011;40936;53.008;6.556;2022-09-21T14:37:02;1999.90;;;999.90;;
55035;SDS011;40936;53.008;6.556;2022-09-21T14:39:37;1999.90;;;999.90;;
55035;SDS011;40936;53.008;6.556;2022-09-21T14:42:10;1999.90;;;999.90;;
55035;SDS011;40936;53.008;6.556;2022-09-21T14:44:41;1999.90;;;999.90;;
55035;SDS011;40936;53.008;6.556;2022-09-21T14:50:05;1999.90;;;999.90;;
55035;SDS011;40936;53.008;6.556;2022-09-21T14:55:31;1999.90;;;999.90;;
55035;SDS011;40936;53.008;6.556;2022-09-21T15:01:19;663.85;;;618.22;;
55035;SDS011;40936;53.008;6.556;2022-09-21T15:18:41;1999.90;;;999.90;;
55035;SDS011;40936;53.008;6.556;2022-09-21T15:21:17;1999.90;;;926.22;;
55035;SDS011;40936;53.008;6.556;2022-09-21T15:23:46;819.78;;;758.65;;
55035;SDS011;40936;53.008;6.556;2022-09-21T15:26:13;1637.38;;;738.78;;
55035;SDS011;40936;53.008;6.556;2022-09-21T15:29:01;1999.90;;;999.90;;
55035;SDS011;40936;53.008;6.556;2022-09-21T15:31:32;1999.90;;;999.90;;
55035;SDS011;40936;53.008;6.556;2022-09-21T15:33:59;1999.90;;;999.90;;
55035;SDS011;40936;53.008;6.556;2022-09-21T15:36:28;1999.90;;;999.90;;
55035;SDS011;40936;53.008;6.556;2022-09-21T15:39:01;1999.90;;;769.92;;
55035;SDS011;40936;53.008;6.556;2022-09-21T15:44:17;1999.90;;;948.33;;
55035;SDS011;40936;53.008;6.556;2022-09-21T15:46:49;1999.90;;;999.90;;
55035;SDS011;40936;53.008;6.556;2022-09-21T15:49:18;1999.90;;;999.90;;
55035;SDS011;40936;53.008;6.556;2022-09-21T15:54:38;1999.90;;;984.30;;
55035;SDS011;40936;53.008;6.556;2022-09-21T15:59:57;1999.90;;;509.98;;
55035;SDS011;40936;53.008;6.556;2022-09-21T16:02:25;1999.90;;;999.90;;
55035;SDS011;40936;53.008;6.556;2022-09-21T16:04:53;1999.90;;;999.90;;
55035;SDS011;40936;53.008;6.556;2022-09-21T16:07:32;1999.90;;;999.90;;
55035;SDS011;40936;53.008;6.556;2022-09-21T16:10:00;1999.90;;;999.90;;
55035;SDS011;40936;53.008;6.556;2022-09-21T16:12:47;1999.90;;;999.90;;
55035;SDS011;40936;53.008;6.556;2022-09-21T16:15:15;1999.90;;;999.90;;
55035;SDS011;40936;53.008;6.556;2022-09-21T16:18:44;1999.90;;;999.90;;
55035;SDS011;40936;53.008;6.556;2022-09-21T16:20:54;1999.90;;;999.90;;
55035;SDS011;40936;53.008;6.556;2022-09-21T16:23:20;1999.90;;;999.90;;
55035;SDS011;40936;53.008;6.556;2022-09-21T16:25:53;1999.90;;;999.90;;
55035;SDS011;40936;53.008;6.556;2022-09-21T16:28:33;1999.90;;;999.90;;
55035;SDS011;40936;53.008;6.556;2022-09-21T16:31:20;1999.90;;;999.90;;
55035;SDS011;40936;53.008;6.556;2022-09-21T16:36:32;1999.90;;;999.90;;
55035;SDS011;40936;53.008;6.556;2022-09-21T16:39:00;1999.90;;;999.90;;
55035;SDS011;40936;53.008;6.556;2022-09-21T16:41:34;1999.90;;;999.90;;
55035;SDS011;40936;53.008;6.556;2022-09-21T16:44:02;1999.90;;;999.90;;
55035;SDS011;40936;53.008;6.556;2022-09-21T16:46:29;1999.90;;;999.90;;
55035;SDS011;40936;53.008;6.556;2022-09-21T16:48:55;1999.90;;;999.90;;
55035;SDS011;40936;53.008;6.556;2022-09-21T16:51:24;1999.90;;;999.90;;
55035;SDS011;40936;53.008;6.556;2022-09-21T16:53:51;1999.90;;;999.90;;
55035;SDS011;40936;53.008;6.556;2022-09-21T16:56:16;1999.90;;;999.90;;
55035;SDS011;40936;53.008;6.556;2022-09-21T16:58:42;1999.90;;;999.90;;
55035;SDS011;40936;53.008;6.556;2022-09-21T17:01:10;1999.90;;;999.90;;
55035;SDS011;40936;53.008;6.556;2022-09-21T17:03:37;1999.90;;;999.90;;
55035;SDS011;40936;53.008;6.556;2022-09-21T17:06:04;1999.90;;;999.90;;
55035;SDS011;40936;53.008;6.556;2022-09-21T17:08:45;1999.90;;;999.90;;
55035;SDS011;40936;53.008;6.556;2022-09-21T17:11:13;1999.90;;;999.90;;
55035;SDS011;40936;53.008;6.556;2022-09-21T17:13:50;1999.90;;;999.90;;
55035;SDS011;40936;53.008;6.556;2022-09-21T17:16:16;1999.90;;;999.90;;
55035;SDS011;40936;53.008;6.556;2022-09-21T17:18:47;1999.90;;;999.90;;
55035;SDS011;40936;53.008;6.556;2022-09-21T17:21:13;1999.90;;;999.90;;
55035;SDS011;40936;53.008;6.556;2022-09-21T17:23:40;1985.18;;;514.88;;
55035;SDS011;40936;53.008;6.556;2022-09-21T17:26:13;1999.90;;;999.90;;
55035;SDS011;40936;53.008;6.556;2022-09-21T17:28:41;1999.90;;;586.75;;
55035;SDS011;40936;53.008;6.556;2022-09-21T17:31:12;1999.90;;;999.90;;
55035;SDS011;40936;53.008;6.556;2022-09-21T17:33:40;1999.90;;;534.67;;
55035;SDS011;40936;53.008;6.556;2022-09-21T17:36:10;1999.90;;;999.90;;
55035;SDS011;40936;53.008;6.556;2022-09-21T17:38:37;1999.90;;;999.90;;
55035;SDS011;40936;53.008;6.556;2022-09-21T17:41:03;1999.90;;;999.90;;
55035;SDS011;40936;53.008;6.556;2022-09-21T17:43:46;1999.90;;;999.90;;
55035;SDS011;40936;53.008;6.556;2022-09-21T17:46:35;1561.75;;;355.67;;
55035;SDS011;40936;53.008;6.556;2022-09-21T17:49:09;1999.90;;;859.90;;
55035;SDS011;40936;53.008;6.556;2022-09-21T17:51:36;1999.90;;;931.42;;
55035;SDS011;40936;53.008;6.556;2022-09-21T17:54:22;1999.90;;;678.75;;
55035;SDS011;40936;53.008;6.556;2022-09-21T17:59:28;1999.90;;;999.90;;
55035;SDS011;40936;53.008;6.556;2022-09-21T18:01:56;1999.90;;;999.90;;
55035;SDS011;40936;53.008;6.556;2022-09-21T18:04:27;1999.90;;;999.90;;
55035;SDS011;40936;53.008;6.556;2022-09-21T18:06:59;1930.10;;;846.40;;